Monticello, Maine
46° 20' 20"N, 67° 53' 10"W, Elevation 575 ft.
Eastern Time

Hourly observations for the last 48 hours

Date

Time

Temperature (F) Humi-
dity
(%)
Wind
(mph)
Pressure Rain (in) Sun
(W/m2)
UV ET
(in)
Air Dew 6 Hour 1 Hr 3 Hr 6 Hr Day
Alt
(in)
Sea
Level
(mb)
Max Min
11 00:00 32.9 16.7 51 WSW 10 G 26 29.77 1008.3 0.20 0 0.0 0.011
10 23:00 34.1 21.3 59 W 6 G 16 29.74 1007.3 0.20 0 0.0 0.009
10 22:00 35.9 23.8 61 W 9 G 24 29.69 1005.5 0.20 0 0.0 0.008
10 21:00 36.9 34.2 90 SW 9 G 21 29.65 1004.2 0.20 0 0.0 0.008
10 20:00 38.6 38.6 100 WSW 4 G 18 29.60 1002.6 0.20 0 0.0 0.008
10 19:00 41.3 41.3 47.1 40.5 100 WSW 4 G 14 29.55 1000.6 0.03 0.20 0 0.0 0.008
10 18:00 41.5 41.5 100 SW 3 G 10 29.52 999.7 0.20 0 0.0 0.008
10 17:00 43.6 43.6 100 SSW 1 G 3 29.49 998.7 0.20 0 0.0 0.008
10 16:00 45.7 45.7 100 S 3 G 11 29.47 997.9 0.02 0.03 0.20 0 0.0 0.008
10 15:00 46.2 46.2 100 S 3 G 7 29.45 997.5 0.01 0.18 14 0.0 0.008
10 14:00 47.0 47.0 100 S 6 G 12 29.45 997.3 0.17 28 0.0 0.007
10 13:00 47.1 47.1 47.9 46.0 100 S 6 G 12 29.42 996.4 0.17 33 0.0 0.006
10 12:00 47.3 47.3 100 S 6 G 17 29.43 996.8 0.17 51 0.0 0.005
10 11:00 47.7 47.7 100 S 5 G 13 29.46 997.7 0.17 83 0.5 0.003
10 10:00 47.6 47.6 100 S 5 G 13 29.45 997.5 0.17 102 0.5 0.001
10 09:00 47.0 47.0 100 S 4 G 17 29.44 996.9 0.17 100 0.0 0.000
10 08:00 46.2 46.2 100 SSW 6 G 16 29.43 996.8 0.17 14 0.0 0.000
10 07:00 46.0 46.0 48.2 45.8 100 S 6 G 13 29.42 996.4 0.06 0.17 0 0.0 0.000
10 06:00 46.4 46.4 100 S 4 G 13 29.41 996.0 0.17 0 0.0 0.000
10 05:00 47.0 47.0 100 S 7 G 15 29.38 995.1 0.17 0 0.0 0.000
10 04:00 47.9 47.9 100 S 9 G 19 29.38 994.8 0.06 0.17 0 0.0 0.000
10 03:00 48.0 48.0 100 S 7 G 13 29.36 994.4 0.01 0.17 0 0.0 0.000
10 02:00 47.9 47.9 100 S 5 G 15 29.39 995.1 0.05 0.16 0 0.0 0.000
10 01:00 47.1 47.1 47.4 38.9 100 S 4 G 10 29.40 995.6 0.11 0.32 0.73 0.11 0 0.0 0.000
10 00:00 47.3 47.3 100 S 11 G 19 29.44 997.1 0.07 0.95 0 0.0 0.004
9 23:00 46.7 46.7 100 SSE 9 G 23 29.48 998.4 0.14 0.88 0 0.0 0.004
9 22:00 46.0 46.0 100 SSE 9 G 18 29.54 1000.4 0.15 0.41 0.74 0 0.0 0.004
9 21:00 44.5 44.5 100 SSE 9 G 19 29.61 1002.7 0.14 0.59 0 0.0 0.004
9 20:00 40.2 39.9 99 SE 3 G 10 29.68 1005.0 0.12 0.45 0 0.0 0.004
9 19:00 38.9 38.6 38.9 32.7 99 SE 3 G 11 29.75 1007.4 0.14 0.23 0.33 0.34 0 0.0 0.004
9 18:00 36.0 35.2 97 E 1 G 4 29.82 1009.8 0.06 0.19 0 0.0 0.004
9 17:00 34.1 33.1 96 ESE 0 G 3 29.90 1012.7 0.03 0.13 0 0.0 0.004
9 16:00 33.7 32.7 96 SE 1 G 4 29.94 1014.1 0.04 0.10 0.10 0 0.0 0.004
9 15:00 33.5 32.5 96 SSE 4 G 7 29.97 1015.0 0.05 0.06 16 0.0 0.004
9 14:00 32.8 32.0 97 SSE 2 G 7 29.99 1015.7 0.01 0.01 42 0.0 0.003
9 13:00 32.8 32.0 32.8 27.9 97 SSE 4 G 13 30.01 1016.3 0.00 116 0.0 0.002
9 12:00 32.4 31.6 97 SSE 3 G 11 30.04 1017.2 0.00 72 0.0 0.001
9 11:00 32.1 31.1 96 S 5 G 9 30.06 1017.9 0.00 104 0.5 0.000
9 10:00 30.6 29.6 96 S 2 G 10 30.09 1019.0 0.00 51 0.0 0.000
9 09:00 29.4 28.4 96 SSE 3 G 7 30.09 1019.0 0.00 19 0.0 0.000
9 08:00 28.5 27.5 96 S 3 G 9 30.08 1018.7 0.00 5 0.0 0.000
9 07:00 27.9 26.7 28.1 27.2 95 S 3 G 9 30.08 1018.5 0.00 0 0.0 0.000
9 06:00 27.5 26.3 95 S 3 G 7 30.07 1018.2 0.00 0 0.0 0.000
9 05:00 27.2 26.0 95 S 4 G 10 30.06 1018.1 0.00 0 0.0 0.000
9 04:00 27.3 26.1 95 S 5 G 11 30.06 1018.0 0.00 0 0.0 0.000
9 03:00 27.8 26.6 95 S 7 G 14 30.06 1017.9 0.00 0 0.0 0.000
9 02:00 27.9 26.7 95 S 4 G 18 30.05 1017.6 0.00 0 0.0 0.000
9 01:00 27.6 26.4 27.6 23.5 95 S 8 G 17 30.05 1017.5 0.00 0 0.0 0.000
9 00:00 27.5 26.3 95 S 6 G 20 30.06 1017.8 0.00 0 0.0 0.018
8 23:00 26.7 25.2 94 S 9 G 17 30.07 1018.4 0.00 0 0.0 0.018
8 22:00 25.3 23.8 94 S 7 G 14 30.07 1018.3 0.00 0 0.0 0.018
8 21:00 24.5 22.8 93 SSE 6 G 13 30.12 1020.1 0.00 0 0.0 0.018
8 20:00 23.9 22.2 93 S 6 G 14 30.15 1020.9 0.00 0 0.0 0.018
8 19:00 23.5 21.8 27.2 23.2 93 S 7 G 15 30.18 1021.9 0.00 0 0.0 0.018
8 18:00 23.2 21.5 93 SSE 7 G 14 30.21 1023.0 0.00 0 0.0 0.018
8 17:00 23.3 21.6 93 S 7 G 20 30.21 1023.1 0.00 0 0.0 0.018
8 16:00 24.1 22.4 93 S 8 G 14 30.21 1023.0 0.00 0 0.0 0.018
8 15:00 25.7 24.2 94 S 6 G 13 30.22 1023.4 0.00 63 0.0 0.017
8 14:00 27.0 25.8 95 S 7 G 14 30.22 1023.5 0.00 174 0.0 0.014
8 13:00 25.4 23.9 25.4 0.3 94 SE 4 G 7 30.25 1024.5 0.00 244 0.7 0.011
8 12:00 25.3 23.6 93 ESE 2 G 6 30.28 1025.6 0.00 287 1.0 0.007
8 11:00 22.9 20.9 92 SSW 4 G 6 30.31 1026.5 0.00 392 1.1 0.003
8 10:00 18.0 15.3 89 SW 4 G 6 30.34 1027.6 0.00 332 0.8 0.001
8 09:00 9.3 5.7 85 SSW 0 G 2 30.34 1027.6 0.00 244 0.0 0.000
8 08:00 0.9 -3.6 81 Calm 30.33 1027.3 0.00 120 0.0 0.000
8 07:00 0.5 -4.0 3.2 -1.4 81 Calm 30.32 1026.8 0.00 5 0.0 0.000
8 06:00 -0.6 -5.3 80 Calm 30.30 1026.0 0.00 0 0.0 0.000
8 05:00 -0.8 -5.5 80 Calm 30.28 1025.3 0.00 0 0.0 0.000
8 04:00 1.3 -3.2 81 SSW 0 G 2 30.27 1025.3 0.00 0 0.0 0.000
8 03:00 1.5 -3.0 81 WSW 0 G 2 30.26 1024.9 0.00 0 0.0 0.000
8 02:00 1.1 -3.4 81 Calm 30.27 1025.0 0.00 0 0.0 0.000
8 01:00 3.2 -1.1 7.6 2.6 82 W 0 G 2 30.26 1024.7 0.00 0 0.0 0.000

Data generated by WxSolution Version 1.9.1.7, Build 2018.11.24.